Aviation Digital Data Service (ADDS)

Output produced by METARs form (1112 UTC 24 April 2017)
found at http://www.aviationweather.gov/adds/metars/
 
EFET 241050Z AUTO 02004KT 9999 FEW022 M00/M06 Q1007
EFHA 241050Z 26006KT 220V310 9999 VCSH SCT030 06/M01 Q1005
TAF EFHA 240834Z 2409/2414 18005KT 9999 BKN030 
     TEMPO 2409/2414 SHRA SCT040CB
       
EFHK 241050Z 23009KT 9999 VCSH FEW010 SCT030CB BKN045 02/01 Q1007 TEMPO 7000 SHRA
TAF EFHK 240829Z 2409/2509 21008KT 9999 FEW035 SCT060 
     TEMPO 2409/2416 SCT040CB 
     BECMG 2500/2503 10012KT 
     BECMG 2503/2506 2000 SNRA BKN006 
     TEMPO 2506/2507 5000 -RASN BKN004 
     BECMG 2507/2509 16010KT 8000 -SHRA SCT020CB BKN050
       
EFIV 241050Z AUTO 19002KT 3700 -SN OVC018 M00/M03 Q1008
EFJO 241050Z AUTO 02005KT 310V050 9999 OVC038 04/M04 Q1006
TAF EFJO 240835Z 2409/2418 08004KT 9999 FEW020 
     TEMPO 2409/2418 7000 -SHRA FEW030CB
       
EFJY 241050Z 19007KT 140V230 9999 FEW045CB SCT049 07/M07 Q1004
TAF EFJY 240834Z 2409/2509 16005KT 9999 SCT045 
     TEMPO 2410/2417 SCT050CB 
     PROB30 
     TEMPO 2412/2416 7000 SHRA 
     TEMPO 2422/2505 2000 BR BKN003
       
EFKI 241050Z 11007KT 090V170 9999 SCT023 BKN086 03/M03 Q1006
TAF EFKI 240835Z 2409/2418 12007KT 9999 FEW015 
     TEMPO 2409/2417 7000 -SHRA FEW030CB
       
EFKE 241050Z AUTO 08008KT 050V120 9999 FEW005 SCT043 BKN051 02/M00 Q1006
TAF EFKE 240827Z 2409/2418 10010KT 1300 -SHSN OVC009 
     BECMG 2409/2411 9999 BKN020
       
EFKT 241050Z AUTO 11003KT CAVOK 01/M07 Q1007
TAF EFKT 240827Z 2409/2418 12007KT CAVOK 
     PROB40 2410/2416 5000 -SHSN FEW025CB
       
EFKK 241050Z 28009KT 240V350 9999 -SHRA FEW041 SCT050 BKN065 06/M01 Q1004
TAF EFKK 240834Z 2409/2418 20005KT 9999 FEW045 
     TEMPO 2410/2417 SCT050CB 
     PROB30 
     TEMPO 2411/2415 6000 SHRA
       
EFKU 241050Z 12007KT 9999 FEW040 SCT083 05/M04 Q1006
TAF EFKU 240835Z 2409/2509 08005KT 9999 FEW025 
     TEMPO 2409/2417 7000 -SHRA FEW025CB 
     PROB30 
     TEMPO 2424/2506 1000 BCFG VV003 
     TEMPO 2506/2509 7000 -SHRA BKN010
       
EFKS 241050Z 14006KT 080V180 9999 BKN028 M01/M08 Q1008
TAF EFKS 240827Z 2409/2418 13008KT 9999 BKN025
       
EFLP 241050Z AUTO 22004KT 180V250 9999 -SHRA SCT023 OVC041 03/01 Q1006
EFMA 241050Z AUTO 18010KT CAVOK 06/M01 Q1005
TAF EFMA 240829Z 2409/2418 18008KT CAVOK
       
EFMI 241050Z AUTO 27006KT 240V320 CAVOK 07/M04 Q1005
EFOU 241050Z AUTO 13013KT 9999 BKN069/// 06/M03 Q1005 R12/19//95
TAF EFOU 240827Z 2409/2509 14011KT CAVOK 
     TEMPO 2410/2418 6000 -SHRA SCT025CB
       
EFPO 241050Z AUTO 24009KT 190V300 9999 FEW032/// 07/M03 Q1005
TAF EFPO 240834Z 2409/2418 24008KT 9999 SCT040 
     PROB30 2410/2414 FEW040CB
       
EFRO 241050Z 10006KT 030V150 CAVOK 01/M07 Q1006
TAF EFRO 240827Z 2409/2509 13010KT 9999 SCT045 
     PROB30 2410/2412 4000 -SHSN 
     TEMPO 2412/2424 3000 -SHSN
       
EFSA 241050Z 35006KT 300V020 9999 VCSH BKN047 06/M05 Q1006
TAF EFSA 240835Z 2409/2418 08005KT 9999 SCT030 
     TEMPO 2409/2418 7000 -SHRA FEW030CB
       
EFSI 241050Z AUTO VRB05KT CAVOK 09/M06 Q1003
EFTP 241050Z 21004KT 140V260 9999 VCSH FEW030 BKN040CB 05/M01 Q1005
TAF EFTP 240834Z 2409/2509 18004KT 9999 BKN030 
     TEMPO 2409/2418 SCT040CB 
     PROB30 
     TEMPO 2410/2416 7000 SHRA 
     BECMG 2505/2507 10013KT 2000 SN VV012
       
EFTU 241050Z AUTO 27009KT 210V300 9999 FEW051/// 08/M05 Q1005
TAF EFTU 240829Z 2409/2509 26008KT 9999 SCT040 
     BECMG 2423/2502 10013KT 2000 SNRA BKN006 
     TEMPO 2502/2504 1200 SN 
     BECMG 2504/2506 16010KT 4000 -RASN BKN004 
     BECMG 2507/2509 9999 BKN015
       
EFUT 241050Z 26006KT 230V290 9999 VCSH FEW018 SCT040 FEW055CB 04/M00 Q1006
TAF EFUT 240835Z 2409/2413 30003KT 9999 SCT015 BKN035 
     TEMPO 2409/2413 4000 SHSNRA SCT050CB
       
EFVA 241050Z AUTO 28006KT 210V320 9999 FEW048/// 08/M04 Q1004
TAF EFVA 240834Z 2409/2509 24005KT 9999 FEW040 
     TEMPO 2410/2418 6000 SHRA SCT040CB 
     BECMG 2507/2509 08012KT